TimePDT,TemperatureF,Dew PointF,Humidity,Sea Level PressureIn,VisibilityMPH,Wind Direction,Wind SpeedMPH,Gust SpeedMPH,PrecipitationIn,Events,Conditions,WindDirDegrees,DateUTC
12:15 AM,55.4,51.8,88,30.16,10.0,North,5.8,-,N/A,,Clear,10,2013-07-04 07:15:00
12:35 AM,53.6,51.8,94,30.16,10.0,North,9.2,-,N/A,,Clear,350,2013-07-04 07:35:00
12:55 AM,55.4,51.8,88,30.16,10.0,North,5.8,-,N/A,,Clear,350,2013-07-04 07:55:00
1:15 AM,55.4,51.8,88,30.16,10.0,NNW,10.4,-,N/A,,Clear,340,2013-07-04 08:15:00
1:35 AM,55.4,51.8,88,30.16,10.0,North,4.6,-,N/A,,Clear,350,2013-07-04 08:35:00
1:55 AM,53.6,50.0,88,30.16,10.0,North,3.5,-,N/A,,Clear,360,2013-07-04 08:55:00
2:15 AM,55.4,50.0,82,30.16,10.0,North,4.6,-,N/A,,Clear,10,2013-07-04 09:15:00
2:35 AM,55.4,50.0,82,30.16,10.0,North,3.5,-,N/A,,Clear,10,2013-07-04 09:35:00
2:55 AM,53.6,50.0,88,30.16,10.0,North,4.6,-,N/A,,Clear,10,2013-07-04 09:55:00
3:15 AM,55.4,50.0,82,30.16,10.0,North,5.8,-,N/A,,Clear,10,2013-07-04 10:15:00
3:35 AM,53.6,50.0,88,30.16,10.0,North,5.8,-,N/A,,Clear,360,2013-07-04 10:35:00
3:55 AM,53.6,50.0,88,30.16,10.0,North,4.6,-,N/A,,Clear,10,2013-07-04 10:55:00
4:15 AM,53.6,50.0,88,30.16,10.0,North,8.1,-,N/A,,Clear,360,2013-07-04 11:15:00
4:35 AM,53.6,50.0,88,30.16,10.0,NNW,6.9,-,N/A,,Clear,340,2013-07-04 11:35:00
4:55 AM,53.6,50.0,88,30.16,10.0,North,4.6,-,N/A,,Clear,360,2013-07-04 11:55:00
5:15 AM,53.6,50.0,88,30.17,10.0,North,5.8,-,N/A,,Clear,360,2013-07-04 12:15:00
5:35 AM,53.6,50.0,88,30.18,10.0,North,5.8,-,N/A,,Clear,360,2013-07-04 12:35:00
5:55 AM,53.6,50.0,88,30.18,7.0,North,4.6,-,N/A,,Clear,10,2013-07-04 12:55:00
6:15 AM,55.4,50.0,82,30.18,10.0,NNE,5.8,-,N/A,,Clear,20,2013-07-04 13:15:00
6:35 AM,55.4,50.0,82,30.18,10.0,North,4.6,-,N/A,,Clear,10,2013-07-04 13:35:00
6:55 AM,57.2,51.8,82,30.19,10.0,North,3.5,-,N/A,,Clear,10,2013-07-04 13:55:00
7:15 AM,59.0,51.8,77,30.18,10.0,North,5.8,-,N/A,,Clear,360,2013-07-04 14:15:00
7:35 AM,59.0,51.8,77,30.19,10.0,North,9.2,-,N/A,,Clear,360,2013-07-04 14:35:00
7:55 AM,60.8,51.8,72,30.19,10.0,North,8.1,-,N/A,,Clear,350,2013-07-04 14:55:00
8:15 AM,60.8,51.8,72,30.19,10.0,NNW,11.5,-,N/A,,Clear,340,2013-07-04 15:15:00
8:35 AM,60.8,51.8,72,30.19,10.0,NNW,12.7,20.7,N/A,,Clear,340,2013-07-04 15:35:00
8:55 AM,60.8,51.8,72,30.19,10.0,North,15.0,-,N/A,,Clear,350,2013-07-04 15:55:00
9:15 AM,60.8,51.8,72,30.19,10.0,NNW,11.5,-,N/A,,Clear,340,2013-07-04 16:15:00
9:35 AM,60.8,51.8,72,30.19,10.0,NNW,12.7,-,N/A,,Clear,340,2013-07-04 16:35:00
9:55 AM,60.8,51.8,72,30.19,10.0,NNW,16.1,21.9,N/A,,Clear,340,2013-07-04 16:55:00
10:15 AM,62.6,53.6,72,30.19,10.0,NNW,16.1,21.9,N/A,,Clear,340,2013-07-04 17:15:00
10:35 AM,62.6,53.6,72,30.18,10.0,NNW,15.0,23.0,N/A,,Clear,340,2013-07-04 17:35:00
10:55 AM,62.6,53.6,72,30.18,10.0,NNW,15.0,21.9,N/A,,Clear,340,2013-07-04 17:55:00
11:15 AM,62.6,53.6,72,30.18,10.0,North,16.1,21.9,N/A,,Clear,350,2013-07-04 18:15:00
11:35 AM,62.6,53.6,72,30.18,10.0,NNW,16.1,-,N/A,,Clear,340,2013-07-04 18:35:00
11:55 AM,62.6,53.6,72,30.18,10.0,NNW,13.8,23.0,N/A,,Clear,340,2013-07-04 18:55:00
12:15 PM,62.6,55.4,77,30.19,10.0,NNW,13.8,19.6,N/A,,Clear,340,2013-07-04 19:15:00
12:35 PM,62.6,53.6,72,30.19,10.0,NNW,15.0,24.2,N/A,,Clear,330,2013-07-04 19:35:00
12:55 PM,62.6,53.6,72,30.18,10.0,NNW,13.8,24.2,N/A,,Clear,340,2013-07-04 19:55:00
1:15 PM,62.6,53.6,72,30.18,10.0,North,12.7,20.7,N/A,,Clear,350,2013-07-04 20:15:00
1:35 PM,64.4,55.4,73,30.18,10.0,North,15.0,25.3,N/A,,Clear,350,2013-07-04 20:35:00
1:55 PM,62.6,55.4,77,30.18,10.0,NNW,13.8,21.9,N/A,,Clear,330,2013-07-04 20:55:00
2:15 PM,62.6,55.4,77,30.17,10.0,NNW,13.8,25.3,N/A,,Clear,340,2013-07-04 21:15:00
2:35 PM,62.6,55.4,77,30.17,10.0,NNW,15.0,19.6,N/A,,Clear,340,2013-07-04 21:35:00
2:55 PM,62.6,55.4,77,30.16,10.0,NNW,17.3,24.2,N/A,,Clear,340,2013-07-04 21:55:00
3:15 PM,62.6,55.4,77,30.16,10.0,NNW,21.9,25.3,N/A,,Clear,340,2013-07-04 22:15:00
3:35 PM,62.6,55.4,77,30.16,10.0,NNW,19.6,25.3,N/A,,Clear,340,2013-07-04 22:35:00
3:55 PM,62.6,55.4,77,30.16,10.0,NNW,16.1,27.6,N/A,,Clear,340,2013-07-04 22:55:00
4:15 PM,62.6,55.4,77,30.15,10.0,North,13.8,23.0,N/A,,Clear,350,2013-07-04 23:15:00
4:35 PM,62.6,55.4,77,30.15,10.0,NNW,13.8,23.0,N/A,,Clear,340,2013-07-04 23:35:00
4:55 PM,62.6,55.4,77,30.14,10.0,North,16.1,24.2,N/A,,Clear,350,2013-07-04 23:55:00
5:15 PM,60.8,53.6,77,30.14,10.0,North,16.1,23.0,N/A,,Clear,350,2013-07-05 00:15:00
5:35 PM,60.8,53.6,77,30.13,10.0,North,17.3,26.5,N/A,,Clear,350,2013-07-05 00:35:00
5:55 PM,60.8,53.6,77,30.14,10.0,NNW,16.1,28.8,N/A,,Clear,340,2013-07-05 00:55:00
6:15 PM,60.8,53.6,77,30.13,10.0,North,17.3,23.0,N/A,,Clear,350,2013-07-05 01:15:00
6:35 PM,60.8,53.6,77,30.13,10.0,North,17.3,23.0,N/A,,Clear,360,2013-07-05 01:35:00
6:55 PM,60.8,53.6,77,30.14,10.0,North,11.5,20.7,N/A,,Clear,350,2013-07-05 01:55:00
7:15 PM,60.8,53.6,77,30.13,7.0,North,16.1,23.0,N/A,,Clear,350,2013-07-05 02:15:00
7:35 PM,59.0,53.6,82,30.13,10.0,North,15.0,21.9,N/A,,Clear,350,2013-07-05 02:35:00
7:55 PM,59.0,53.6,82,30.12,10.0,North,11.5,18.4,N/A,,Clear,350,2013-07-05 02:55:00
8:15 PM,59.0,53.6,82,30.13,7.0,NNW,15.0,21.9,N/A,,Clear,340,2013-07-05 03:15:00
8:35 PM,55.4,51.8,88,30.12,7.0,North,10.4,-,N/A,,Scattered Clouds,360,2013-07-05 03:35:00
8:55 PM,55.4,51.8,88,30.12,7.0,North,6.9,-,N/A,,Scattered Clouds,10,2013-07-05 03:55:00
9:15 PM,57.2,51.8,82,30.12,10.0,North,9.2,-,N/A,,Clear,350,2013-07-05 04:15:00
9:35 PM,57.2,51.8,82,30.13,10.0,North,12.7,19.6,N/A,,Clear,350,2013-07-05 04:35:00
9:55 PM,57.2,51.8,82,30.13,10.0,North,8.1,16.1,N/A,,Clear,360,2013-07-05 04:55:00
10:15 PM,57.2,51.8,82,30.14,10.0,North,9.2,17.3,N/A,,Clear,360,2013-07-05 05:15:00
10:35 PM,57.2,51.8,82,30.14,10.0,North,9.2,16.1,N/A,,Scattered Clouds,360,2013-07-05 05:35:00
10:55 PM,55.4,51.8,88,30.14,10.0,North,8.1,-,N/A,,Scattered Clouds,10,2013-07-05 05:55:00
11:15 PM,57.2,50.0,77,30.13,10.0,NNE,5.8,-,N/A,,Clear,20,2013-07-05 06:15:00
11:35 PM,55.4,50.0,82,30.14,10.0,North,4.6,-,N/A,,Scattered Clouds,10,2013-07-05 06:35:00
11:55 PM,55.4,50.0,82,30.13,10.0,North,5.8,-,N/A,,Mostly Cloudy,360,2013-07-05 06:55:00